Time;durP1;ratioP1;P1;durP2;ratioP2;P2;SDS_P1;SDS_P2;PMS_P1;PMS_P2;Temp;Humidity;BMP_temperature;BMP_pressure;BME280_temperature;BME280_humidity;BME280_pressure;Samples;Min_cycle;Max_cycle;Signal;HPM_P1;HPM_P2
2022/07/25 00:00:41;;;;;;;8.73;5.57;;;22.10;99.90;;;;;;5072334;28;20283;-59
2022/07/25 00:03:09;;;;;;;9.67;5.20;;;22.00;99.90;;;;;;5072786;28;20719;-59
2022/07/25 00:05:38;;;;;;;5.80;5.40;;;21.90;99.90;;;;;;5070771;28;20293;-59
2022/07/25 00:08:07;;;;;;;6.63;5.93;;;21.80;99.90;;;;;;5072933;28;20234;-59
2022/07/25 00:10:36;;;;;;;5.60;5.10;;;21.80;99.90;;;;;;5070353;28;20211;-59
2022/07/25 00:13:04;;;;;;;5.67;5.27;;;21.70;99.90;;;;;;5072619;28;20219;-59
2022/07/25 00:15:33;;;;;;;6.00;5.50;;;21.70;99.90;;;;;;5051532;28;20200;-59
2022/07/25 00:18:02;;;;;;;7.00;5.73;;;21.60;99.90;;;;;;5067033;28;20204;-59
2022/07/25 00:20:30;;;;;;;6.03;5.40;;;21.50;99.90;;;;;;5072820;28;20196;-59
2022/07/25 00:22:59;;;;;;;5.83;5.10;;;21.50;99.90;;;;;;5073121;28;20196;-59
2022/07/25 00:25:29;;;;;;;5.80;5.30;;;21.40;99.90;;;;;;5072709;28;20215;-59
2022/07/25 00:27:57;;;;;;;5.63;5.27;;;21.40;99.90;;;;;;5072522;28;20200;-59
2022/07/25 00:30:27;;;;;;;8.00;6.30;;;21.30;99.90;;;;;;5067144;28;20193;-59
2022/07/25 00:32:58;;;;;;;7.13;5.87;;;21.20;99.90;;;;;;5069407;28;20196;-59
2022/07/25 00:35:26;;;;;;;6.03;5.60;;;21.20;99.90;;;;;;5072354;28;20265;-59
2022/07/25 00:37:55;;;;;;;5.80;5.40;;;21.10;99.90;;;;;;5069526;28;20279;-59
2022/07/25 00:40:23;;;;;;;11.60;6.03;;;21.10;99.90;;;;;;5073694;28;20196;-59
2022/07/25 00:42:53;;;;;;;7.90;5.97;;;21.00;99.90;;;;;;5084355;28;20542;-59
2022/07/25 00:45:21;;;;;;;7.33;5.97;;;20.90;99.90;;;;;;5081500;28;20295;-59
2022/07/25 00:47:49;;;;;;;6.40;5.93;;;20.90;99.90;;;;;;5075925;28;20215;-59
2022/07/25 00:50:18;;;;;;;6.83;6.13;;;20.80;99.90;;;;;;5075986;28;20647;-60
2022/07/25 00:52:47;;;;;;;7.27;6.37;;;20.80;99.90;;;;;;5064856;28;20660;-59
2022/07/25 00:55:16;;;;;;;5.93;5.43;;;20.80;99.90;;;;;;5102805;28;20274;-59
2022/07/25 00:57:44;;;;;;;6.33;5.67;;;20.70;99.90;;;;;;5076040;28;20631;-59
2022/07/25 01:00:19;;;;;;;9.27;6.53;;;20.70;99.90;;;;;;5072915;28;20219;-59
2022/07/25 01:03:25;;;;;;;6.63;5.93;;;20.60;99.90;;;;;;5073986;28;20195;-59
2022/07/25 01:05:59;;;;;;;6.37;5.77;;;20.60;99.90;;;;;;5061835;28;20779;-59
2022/07/25 01:08:27;;;;;;;7.00;6.20;;;20.50;99.90;;;;;;5071902;28;20229;-59
2022/07/25 01:10:55;;;;;;;6.17;5.73;;;20.50;99.90;;;;;;5074064;28;20271;-59
2022/07/25 01:13:24;;;;;;;6.43;5.93;;;20.50;99.90;;;;;;5102103;28;20224;-59
2022/07/25 01:15:54;;;;;;;10.60;6.50;;;20.50;99.90;;;;;;5075304;28;20238;-59
2022/07/25 01:18:22;;;;;;;6.80;6.00;;;20.40;99.90;;;;;;5074574;28;20184;-60
2022/07/25 01:20:52;;;;;;;7.20;6.10;;;20.40;99.90;;;;;;5075580;28;20208;-59
2022/07/25 01:23:20;;;;;;;8.33;6.30;;;20.40;99.90;;;;;;5063029;28;20231;-59
2022/07/25 01:25:49;;;;;;;7.70;6.30;;;20.40;99.90;;;;;;5072004;28;20734;-59
2022/07/25 01:28:18;;;;;;;7.20;6.50;;;20.40;99.90;;;;;;5073752;28;20220;-59
2022/07/25 01:30:46;;;;;;;7.17;6.00;;;20.40;99.90;;;;;;5069202;28;20292;-59
2022/07/25 01:33:16;;;;;;;7.23;6.57;;;20.30;99.90;;;;;;5060079;28;20195;-59
2022/07/25 01:35:45;;;;;;;7.30;6.63;;;20.30;99.90;;;;;;5068710;28;20567;-59
2022/07/25 01:38:16;;;;;;;7.50;6.80;;;20.30;99.90;;;;;;5070475;28;20215;-59
2022/07/25 01:40:45;;;;;;;9.63;6.60;;;20.20;99.90;;;;;;5098652;28;20200;-59
2022/07/25 01:43:14;;;;;;;8.17;6.53;;;20.20;99.90;;;;;;5061388;28;20205;-59
2022/07/25 01:45:42;;;;;;;6.87;5.83;;;20.10;99.90;;;;;;5073516;28;20277;-60
2022/07/25 01:48:11;;;;;;;7.00;6.33;;;20.10;99.90;;;;;;5069235;28;20615;-59
2022/07/25 01:50:39;;;;;;;7.70;6.57;;;20.00;99.90;;;;;;5072341;28;20551;-59
2022/07/25 01:53:07;;;;;;;8.70;6.70;;;20.00;99.90;;;;;;5075803;28;20222;-59
2022/07/25 01:56:05;;;;;;;7.13;6.43;;;20.00;99.90;;;;;;5077325;28;20295;-60
2022/07/25 02:03:28;;;;;;;8.00;6.60;;;19.90;99.90;;;;;;5070211;28;20647;-59
2022/07/25 02:05:40;;;;;;;11.83;6.93;;;19.80;99.90;;;;;;5071287;28;20307;-59
2022/07/25 02:08:28;;;;;;;7.57;6.50;;;19.80;99.90;;;;;;5074961;28;20239;-59
2022/07/25 02:10:57;;;;;;;7.70;6.53;;;19.70;99.90;;;;;;5070527;28;20196;-59
2022/07/25 02:13:27;;;;;;;7.97;7.17;;;19.70;99.90;;;;;;5072878;28;20192;-59
2022/07/25 02:15:56;;;;;;;7.33;6.63;;;19.70;99.90;;;;;;5071526;28;20193;-59
2022/07/25 02:18:25;;;;;;;7.10;6.47;;;19.70;99.90;;;;;;5073720;28;20192;-59
2022/07/25 02:20:53;;;;;;;12.17;7.13;;;19.70;99.90;;;;;;5073437;28;20192;-59
2022/07/25 02:23:24;;;;;;;9.60;6.93;;;19.70;99.90;;;;;;5074044;28;20290;-59
2022/07/25 02:25:53;;;;;;;7.43;6.73;;;19.70;99.90;;;;;;5070684;28;20216;-59
2022/07/25 02:28:21;;;;;;;8.70;7.10;;;19.60;99.90;;;;;;5073993;28;20207;-59
2022/07/25 02:30:51;;;;;;;9.40;6.80;;;19.60;99.90;;;;;;5073331;28;20250;-59
2022/07/25 02:33:19;;;;;;;8.40;6.97;;;19.60;99.90;;;;;;5065251;28;20176;-59
2022/07/25 02:35:49;;;;;;;8.53;7.10;;;19.60;99.90;;;;;;5073248;28;20199;-59
2022/07/25 02:38:19;;;;;;;8.93;7.13;;;19.60;99.90;;;;;;5074634;28;20212;-59
2022/07/25 02:40:48;;;;;;;8.03;7.03;;;19.60;99.90;;;;;;5074116;28;20208;-59
2022/07/25 02:43:17;;;;;;;7.53;6.90;;;19.60;99.90;;;;;;5058238;28;20193;-59
2022/07/25 02:45:46;;;;;;;11.43;7.13;;;19.60;99.90;;;;;;5066056;28;20219;-59
2022/07/25 02:48:16;;;;;;;16.77;6.90;;;19.70;99.90;;;;;;5071886;28;20539;-59
2022/07/25 02:50:45;;;;;;;9.57;6.93;;;19.70;99.90;;;;;;5077715;28;20611;-59
2022/07/25 02:53:13;;;;;;;8.43;6.63;;;19.70;99.90;;;;;;5079879;28;20689;-60
2022/07/25 02:55:42;;;;;;;9.00;7.53;;;19.80;99.90;;;;;;5073820;28;20710;-59
2022/07/25 02:58:10;;;;;;;7.73;6.93;;;19.80;99.90;;;;;;5074022;28;20196;-59
2022/07/25 03:00:39;;;;;;;9.17;7.53;;;19.80;99.90;;;;;;5062489;28;20218;-59
2022/07/25 03:03:33;;;;;;;11.83;7.27;;;19.80;99.90;;;;;;5068620;28;20208;-60
2022/07/25 03:06:02;;;;;;;7.93;7.13;;;19.80;99.90;;;;;;5074213;28;20204;-59
2022/07/25 03:09:07;;;;;;;7.30;6.60;;;19.90;99.90;;;;;;5073528;28;20244;-59
2022/07/25 03:11:35;;;;;;;6.40;5.80;;;19.90;99.90;;;;;;5072140;28;20196;-59
2022/07/25 03:14:04;;;;;;;6.50;5.90;;;19.90;99.90;;;;;;5073828;28;20208;-59
2022/07/25 03:16:33;;;;;;;6.37;5.77;;;19.90;99.90;;;;;;5074065;28;20192;-59
2022/07/25 03:19:03;;;;;;;5.40;4.90;;;19.90;99.90;;;;;;5073536;28;20203;-59
2022/07/25 03:21:32;;;;;;;6.17;5.00;;;20.00;99.90;;;;;;5072380;28;20192;-59
2022/07/25 03:24:00;;;;;;;8.57;4.77;;;20.00;99.90;;;;;;5072656;28;20685;-59
2022/07/25 03:26:29;;;;;;;4.80;4.40;;;20.10;99.90;;;;;;5069353;28;20282;-59
2022/07/25 03:28:57;;;;;;;4.63;4.10;;;20.10;99.90;;;;;;5063942;28;20200;-59
2022/07/25 03:31:26;;;;;;;4.23;3.83;;;20.20;99.90;;;;;;5073433;28;20200;-59
2022/07/25 03:33:55;;;;;;;5.87;3.67;;;20.20;99.90;;;;;;5073738;28;20194;-59
2022/07/25 03:36:25;;;;;;;4.03;3.57;;;20.20;99.90;;;;;;5073310;28;20196;-59
2022/07/25 03:38:55;;;;;;;4.27;3.77;;;20.20;99.90;;;;;;5061359;28;20200;-60
2022/07/25 03:41:24;;;;;;;4.47;4.10;;;20.20;99.90;;;;;;5073001;28;20211;-60
2022/07/25 03:43:55;;;;;;;8.77;3.73;;;20.10;99.90;;;;;;5068260;28;20205;-59
2022/07/25 03:46:23;;;;;;;3.87;3.57;;;20.20;99.90;;;;;;5087220;28;20654;-60
2022/07/25 03:48:52;;;;;;;6.37;3.90;;;20.10;99.90;;;;;;5072295;28;20215;-59
2022/07/25 03:51:20;;;;;;;5.53;3.80;;;20.10;99.90;;;;;;5063635;28;20222;-60
2022/07/25 03:54:02;;;;;;;6.20;4.10;;;20.10;99.90;;;;;;5067961;28;20250;-60
2022/07/25 03:56:32;;;;;;;4.00;3.70;;;20.10;99.90;;;;;;5066610;28;20217;-60
2022/07/25 03:59:01;;;;;;;6.57;4.00;;;20.10;99.90;;;;;;5072247;28;20272;-60
2022/07/25 04:01:29;;;;;;;6.13;3.90;;;20.10;99.90;;;;;;5060838;28;20273;-59
2022/07/25 04:04:35;;;;;;;7.17;4.30;;;20.10;99.90;;;;;;5053444;28;20319;-59
2022/07/25 04:07:04;;;;;;;6.87;4.33;;;20.10;99.90;;;;;;5059310;28;20220;-60
2022/07/25 04:09:34;;;;;;;4.00;3.70;;;20.10;99.90;;;;;;5072860;28;20245;-60
2022/07/25 04:12:02;;;;;;;5.77;4.10;;;20.10;99.90;;;;;;5059201;28;20278;-60
2022/07/25 04:14:31;;;;;;;5.53;3.83;;;20.10;99.90;;;;;;5103881;28;20665;-59
2022/07/25 04:16:59;;;;;;;4.13;3.73;;;20.10;99.90;;;;;;5078380;28;20187;-60
2022/07/25 04:19:28;;;;;;;4.60;3.63;;;20.10;99.90;;;;;;5079913;28;20187;-59
2022/07/25 04:21:56;;;;;;;4.43;3.93;;;20.10;99.90;;;;;;5074121;28;20284;-60
2022/07/25 04:24:25;;;;;;;3.83;3.27;;;20.10;99.90;;;;;;5071583;28;20189;-60
2022/07/25 04:26:54;;;;;;;5.07;3.40;;;20.00;99.90;;;;;;5073102;28;20310;-60
2022/07/25 04:30:00;;;;;;;4.10;3.40;;;20.00;99.90;;;;;;5067734;28;20270;-59
2022/07/25 04:32:28;;;;;;;3.87;3.20;;;20.00;99.90;;;;;;5079383;28;20275;-59
2022/07/25 04:34:56;;;;;;;2.93;2.73;;;20.00;99.90;;;;;;5075319;28;20230;-59
2022/07/25 04:37:24;;;;;;;3.10;2.90;;;20.00;99.90;;;;;;5087628;28;20610;-59
2022/07/25 04:39:53;;;;;;;3.63;2.87;;;20.00;99.90;;;;;;5082508;28;20278;-60
2022/07/25 04:42:22;;;;;;;2.97;2.77;;;19.90;99.90;;;;;;5079240;28;20188;-60
2022/07/25 04:44:50;;;;;;;3.10;2.43;;;19.90;99.90;;;;;;5059384;28;20224;-60
2022/07/25 04:47:19;;;;;;;3.07;2.87;;;19.90;99.90;;;;;;5075322;28;20225;-59
2022/07/25 04:49:47;;;;;;;3.10;2.87;;;19.90;99.90;;;;;;5079752;28;20225;-59
2022/07/25 04:52:15;;;;;;;6.37;3.17;;;19.80;99.90;;;;;;5073156;28;20200;-60
2022/07/25 04:54:44;;;;;;;4.67;3.03;;;19.80;99.90;;;;;;5076045;28;20247;-60
2022/07/25 04:57:12;;;;;;;3.63;2.90;;;19.80;99.90;;;;;;5079328;28;20198;-59
2022/07/25 04:59:43;;;;;;;2.87;2.50;;;19.80;99.90;;;;;;5074769;28;20692;-60
2022/07/25 05:02:11;;;;;;;3.17;2.50;;;19.80;99.90;;;;;;5058078;28;20659;-60
2022/07/25 05:04:40;;;;;;;3.00;2.80;;;19.70;99.90;;;;;;5058399;28;20192;-59
2022/07/25 05:07:12;;;;;;;2.50;2.40;;;19.70;99.90;;;;;;5069151;28;20681;-60
2022/07/25 05:09:41;;;;;;;4.73;2.70;;;19.70;99.90;;;;;;5078269;28;20222;-59
2022/07/25 05:12:09;;;;;;;6.33;2.47;;;19.70;99.90;;;;;;5075164;28;20219;-60
2022/07/25 05:14:38;;;;;;;3.83;2.47;;;19.70;99.90;;;;;;5079284;28;20194;-60
2022/07/25 05:17:08;;;;;;;3.13;2.80;;;19.70;99.90;;;;;;5060994;28;20276;-60
2022/07/25 05:19:36;;;;;;;3.47;2.60;;;19.70;99.90;;;;;;5079383;28;20223;-59
2022/07/25 05:22:07;;;;;;;2.97;2.77;;;19.80;99.90;;;;;;5085409;28;20627;-59
2022/07/25 05:24:36;;;;;;;5.57;3.20;;;19.80;99.90;;;;;;5070624;28;20650;-59
2022/07/25 05:27:05;;;;;;;7.80;2.50;;;19.90;99.90;;;;;;5074134;28;20298;-60
2022/07/25 05:29:33;;;;;;;4.07;2.90;;;19.90;99.90;;;;;;5076045;28;20271;-59
2022/07/25 05:32:01;;;;;;;2.73;2.30;;;20.00;99.90;;;;;;5093695;28;20235;-59
2022/07/25 05:34:31;;;;;;;5.00;2.83;;;20.00;99.90;;;;;;5076074;28;20654;-60
2022/07/25 05:36:59;;;;;;;5.30;2.80;;;20.10;99.90;;;;;;5075922;28;20226;-60
2022/07/25 05:39:27;;;;;;;2.60;2.40;;;20.10;99.90;;;;;;5061367;28;20649;-59
2022/07/25 05:41:56;;;;;;;3.43;2.57;;;20.10;99.90;;;;;;5067598;28;20287;-60
2022/07/25 05:44:24;;;;;;;3.87;2.60;;;20.10;99.90;;;;;;5070124;28;20235;-60
2022/07/25 05:46:52;;;;;;;6.40;2.57;;;20.10;99.90;;;;;;5072584;28;20299;-60
2022/07/25 05:49:22;;;;;;;7.00;2.57;;;20.10;99.90;;;;;;5073609;28;20219;-59
2022/07/25 05:51:52;;;;;;;8.07;2.87;;;20.10;99.90;;;;;;5075950;28;20199;-60
2022/07/25 05:54:20;;;;;;;5.03;2.70;;;20.10;99.90;;;;;;5075636;28;20216;-59
2022/07/25 05:56:49;;;;;;;4.80;2.40;;;20.10;99.90;;;;;;5073160;28;20635;-59
2022/07/25 05:59:19;;;;;;;3.90;2.57;;;20.10;99.90;;;;;;5069488;28;20204;-60
2022/07/25 06:01:47;;;;;;;8.63;2.73;;;20.20;99.90;;;;;;5055805;28;20196;-60
2022/07/25 06:04:16;;;;;;;3.87;2.43;;;20.10;99.90;;;;;;5055382;28;20200;-59
2022/07/25 06:06:49;;;;;;;8.43;2.90;;;20.20;99.90;;;;;;5055046;28;20338;-59
2022/07/25 06:09:20;;;;;;;3.67;2.53;;;20.20;99.90;;;;;;5057387;28;20288;-59
2022/07/25 06:11:49;;;;;;;5.23;2.77;;;20.30;99.90;;;;;;5055397;28;20674;-59
2022/07/25 06:14:28;;;;;;;7.83;2.90;;;20.40;99.90;;;;;;5063041;28;20188;-59
2022/07/25 06:16:57;;;;;;;4.20;3.10;;;20.50;99.90;;;;;;5075270;28;20715;-60
2022/07/25 06:19:52;;;;;;;5.70;3.00;;;20.50;99.90;;;;;;5078821;28;20635;-59
2022/07/25 06:22:20;;;;;;;6.73;2.80;;;20.60;99.90;;;;;;5074265;28;20192;-60
2022/07/25 06:24:50;;;;;;;5.93;3.23;;;20.50;99.90;;;;;;5069551;28;20715;-60
2022/07/25 06:27:18;;;;;;;4.57;3.00;;;20.50;99.90;;;;;;5058096;28;20682;-59
2022/07/25 06:29:49;;;;;;;7.70;2.93;;;20.60;99.90;;;;;;5092870;28;20601;-59
2022/07/25 06:32:17;;;;;;;4.67;2.80;;;20.90;99.90;;;;;;5085957;28;20267;-59
2022/07/25 06:34:46;;;;;;;8.03;3.00;;;21.30;99.90;;;;;;5070610;28;20206;-59
2022/07/25 06:37:14;;;;;;;3.97;2.90;;;21.50;99.90;;;;;;5073569;28;20551;-59
2022/07/25 06:39:43;;;;;;;5.57;3.27;;;21.50;99.90;;;;;;5066554;28;20192;-60
2022/07/25 06:42:14;;;;;;;3.40;3.10;;;21.50;99.90;;;;;;5075812;28;20522;-59
2022/07/25 06:44:43;;;;;;;2.90;2.67;;;21.50;99.90;;;;;;5070868;28;20219;-59
2022/07/25 06:47:12;;;;;;;8.60;3.27;;;21.50;99.90;;;;;;5062921;28;20189;-59
2022/07/25 06:49:41;;;;;;;6.13;3.47;;;21.70;99.90;;;;;;5059189;28;20295;-59
2022/07/25 06:52:09;;;;;;;5.50;3.40;;;21.70;99.90;;;;;;5066561;28;20197;-59
2022/07/25 06:54:38;;;;;;;4.37;3.17;;;21.80;99.90;;;;;;5061689;28;20251;-59
2022/07/25 06:57:07;;;;;;;4.97;3.33;;;21.80;99.90;;;;;;5070456;28;20619;-59
2022/07/25 06:59:37;;;;;;;4.27;3.33;;;22.00;99.90;;;;;;5058274;28;20731;-59
2022/07/25 07:02:05;;;;;;;6.27;3.07;;;22.40;99.90;;;;;;5105790;28;20235;-59
2022/07/25 07:04:34;;;;;;;6.07;3.00;;;22.50;99.90;;;;;;5074050;28;20219;-60
2022/07/25 07:07:02;;;;;;;9.03;3.47;;;22.50;99.90;;;;;;5072396;28;20313;-59
2022/07/25 07:09:30;;;;;;;7.43;3.33;;;22.60;99.90;;;;;;5073940;28;20218;-59
2022/07/25 07:11:59;;;;;;;3.77;2.60;;;22.60;99.90;;;;;;5073937;28;20710;-59
2022/07/25 07:14:28;;;;;;;5.63;2.97;;;22.30;99.90;;;;;;5064585;28;20200;-59
2022/07/25 07:16:57;;;;;;;4.27;2.73;;;22.30;99.90;;;;;;5073453;28;20280;-59
2022/07/25 07:19:26;;;;;;;2.70;2.50;;;22.50;99.90;;;;;;5071748;28;20263;-60
2022/07/25 07:21:54;;;;;;;4.67;2.40;;;23.00;99.90;;;;;;5073682;28;20554;-60
2022/07/25 07:24:23;;;;;;;5.50;2.37;;;23.50;99.90;;;;;;5063920;28;20192;-60
2022/07/25 07:26:52;;;;;;;4.40;2.77;;;23.70;99.90;;;;;;5071530;28;20208;-60
2022/07/25 07:29:21;;;;;;;6.07;2.93;;;23.70;99.90;;;;;;5072880;28;20250;-60
2022/07/25 07:31:49;;;;;;;5.13;2.40;;;23.70;99.90;;;;;;5069469;28;20259;-60
2022/07/25 07:34:19;;;;;;;5.53;2.60;;;23.90;99.90;;;;;;5060421;28;20832;-60
2022/07/25 07:36:47;;;;;;;4.03;2.33;;;24.00;99.90;;;;;;5070022;28;20642;-60
2022/07/25 07:39:16;;;;;;;3.37;2.37;;;24.30;99.90;;;;;;5073343;28;20188;-61
2022/07/25 07:41:44;;;;;;;3.90;2.27;;;24.40;99.90;;;;;;5061767;28;20220;-60
2022/07/25 07:44:13;;;;;;;2.40;1.97;;;24.40;99.90;;;;;;5058902;28;20272;-61
2022/07/25 07:46:41;;;;;;;3.88;2.22;;;24.70;99.90;;;;;;5061672;28;20591;-60
2022/07/25 07:49:10;;;;;;;3.28;2.20;;;24.70;99.90;;;;;;5064606;28;20679;-60
2022/07/25 07:51:40;;;;;;;3.13;2.15;;;25.00;99.90;;;;;;5062106;28;20196;-60
2022/07/25 07:56:54;;;;;;;6.07;2.22;;;25.50;99.90;;;;;;5105759;28;20224;-60
2022/07/25 07:59:23;;;;;;;2.55;2.03;;;25.20;99.90;;;;;;5073095;28;20200;-60
2022/07/25 08:01:51;;;;;;;5.53;2.13;;;24.60;99.90;;;;;;5069360;28;20232;-60
2022/07/25 08:04:19;;;;;;;4.37;2.17;;;24.50;99.90;;;;;;5069674;28;20275;-60
2022/07/25 08:06:49;;;;;;;1.97;1.80;;;24.50;99.90;;;;;;5057379;28;20231;-60
2022/07/25 08:09:17;;;;;;;2.97;1.97;;;24.70;99.90;;;;;;5068659;28;20209;-60
2022/07/25 08:11:46;;;;;;;2.88;2.17;;;24.90;99.90;;;;;;5071865;28;20568;-60
2022/07/25 08:14:14;;;;;;;4.40;2.05;;;25.20;99.90;;;;;;5091053;28;20650;-60
2022/07/25 08:16:42;;;;;;;6.25;2.20;;;25.10;99.90;;;;;;5072476;28;20709;-60
2022/07/25 08:19:12;;;;;;;1.80;1.70;;;25.50;99.90;;;;;;5072974;28;20201;-60
2022/07/25 08:21:40;;;;;;;4.32;2.00;;;25.80;99.90;;;;;;5072991;28;20271;-60
2022/07/25 08:24:10;;;;;;;3.15;1.75;;;25.90;99.90;;;;;;5071791;28;20199;-61
2022/07/25 08:26:38;;;;;;;2.05;1.70;;;26.20;99.90;;;;;;5071901;28;20202;-61
2022/07/25 08:29:06;;;;;;;3.30;2.03;;;26.90;99.90;;;;;;5069438;28;20714;-61
2022/07/25 08:31:55;;;;;;;2.03;1.92;;;27.00;99.90;;;;;;5072010;28;20207;-61
2022/07/25 08:34:23;;;;;;;2.15;2.00;;;27.20;99.90;;;;;;5064080;28;20200;-61
2022/07/25 08:36:51;;;;;;;1.83;1.73;;;27.40;99.90;;;;;;5071860;28;20218;-60
2022/07/25 08:39:21;;;;;;;2.20;1.90;;;28.10;99.90;;;;;;5061649;28;20189;-60
2022/07/25 08:41:50;;;;;;;2.17;1.92;;;28.60;99.90;;;;;;5071484;28;20299;-61
2022/07/25 08:44:20;;;;;;;2.17;1.80;;;28.60;99.90;;;;;;5076246;28;20196;-60
2022/07/25 08:46:48;;;;;;;4.30;1.88;;;28.60;99.90;;;;;;5072192;28;20196;-61
2022/07/25 08:49:17;;;;;;;3.47;2.10;;;28.60;99.90;;;;;;5067630;28;20228;-61
2022/07/25 08:51:46;;;;;;;6.72;2.00;;;27.90;99.90;;;;;;5056331;28;20656;-60
2022/07/25 08:54:19;;;;;;;2.55;1.90;;;27.50;99.90;;;;;;5068043;28;20207;-60
2022/07/25 08:56:51;;;;;;;4.13;1.90;;;26.70;99.90;;;;;;5072096;28;20287;-60
2022/07/25 08:59:19;;;;;;;4.03;1.95;;;26.30;99.90;;;;;;5069627;28;20514;-59
2022/07/25 09:01:47;;;;;;;3.67;2.05;;;26.00;99.90;;;;;;5065843;28;20218;-60
2022/07/25 09:04:16;;;;;;;4.77;2.20;;;25.70;99.90;;;;;;5069838;28;20196;-59
2022/07/25 09:06:49;;;;;;;2.57;2.30;;;25.40;99.90;;;;;;5065291;28;20652;-61
2022/07/25 09:09:29;;;;;;;2.63;1.90;;;25.50;99.90;;;;;;5076961;28;20546;-60
2022/07/25 09:11:59;;;;;;;3.33;2.10;;;26.20;99.90;;;;;;5071759;28;20261;-60
2022/07/25 09:14:28;;;;;;;2.50;2.22;;;27.10;99.90;;;;;;5066862;28;20199;-60
2022/07/25 09:16:56;;;;;;;7.18;2.60;;;27.50;99.90;;;;;;5072479;28;20285;-60
2022/07/25 09:19:26;;;;;;;3.08;2.08;;;28.00;99.90;;;;;;5062400;28;20680;-60
2022/07/25 09:22:00;;;;;;;4.13;2.05;;;28.00;99.90;;;;;;5094786;28;20242;-60
2022/07/25 09:24:29;;;;;;;2.47;2.28;;;27.20;99.90;;;;;;5065414;28;20704;-60
2022/07/25 09:27:00;;;;;;;6.60;2.63;;;26.60;99.90;;;;;;5063447;28;20278;-61
2022/07/25 09:29:30;;;;;;;5.03;2.20;;;26.30;99.90;;;;;;5072377;28;20223;-60
2022/07/25 09:32:00;;;;;;;7.67;2.23;;;26.20;99.90;;;;;;5069850;28;20211;-60
2022/07/25 09:34:36;;;;;;;2.33;2.10;;;25.80;99.90;;;;;;5066887;28;20287;-60
2022/07/25 09:37:06;;;;;;;4.37;2.30;;;25.60;99.90;;;;;;5066295;28;20195;-60
2022/07/25 09:39:37;;;;;;;7.30;1.90;;;25.70;99.90;;;;;;5061171;28;20197;-60
2022/07/25 09:42:24;;;;;;;5.10;2.30;;;25.70;99.90;;;;;;5067514;28;20606;-60
2022/07/25 09:45:05;;;;;;;6.00;2.20;;;25.80;99.90;;;;;;5059519;28;20699;-60
2022/07/25 09:47:36;;;;;;;4.47;2.27;;;26.10;99.90;;;;;;5067311;28;20200;-60
2022/07/25 09:50:06;;;;;;;10.97;2.27;;;26.30;99.90;;;;;;5072354;28;20216;-59
2022/07/25 09:52:35;;;;;;;5.90;2.70;;;26.00;99.90;;;;;;5069071;28;20227;-60
2022/07/25 09:55:06;;;;;;;6.97;2.90;;;25.50;99.90;;;;;;5068732;28;20212;-60
2022/07/25 09:57:36;;;;;;;5.33;2.60;;;25.30;99.90;;;;;;5069182;28;20197;-60
2022/07/25 10:00:07;;;;;;;3.40;2.40;;;25.10;99.90;;;;;;5072878;28;20200;-59
2022/07/25 10:02:44;;;;;;;3.27;2.20;;;24.80;99.90;;;;;;5069112;28;20210;-60
2022/07/25 10:05:16;;;;;;;6.33;2.50;;;24.50;99.90;;;;;;5071866;28;20563;-59
2022/07/25 10:07:47;;;;;;;5.07;2.50;;;24.30;99.90;;;;;;5075185;28;20233;-59
2022/07/25 10:10:27;;;;;;;4.07;2.43;;;24.40;99.90;;;;;;5078104;28;20689;-59
2022/07/25 10:13:05;;;;;;;4.80;2.63;;;24.50;99.90;;;;;;5071935;28;20282;-60
2022/07/25 10:15:46;;;;;;;6.97;2.60;;;24.40;99.90;;;;;;5068367;28;20229;-59
2022/07/25 10:18:16;;;;;;;3.93;2.30;;;24.20;99.90;;;;;;5074030;28;20679;-59
2022/07/25 10:20:45;;;;;;;3.97;2.57;;;23.90;99.90;;;;;;5069091;28;20253;-59
2022/07/25 10:23:22;;;;;;;4.07;2.53;;;23.80;99.90;;;;;;5074433;28;20202;-59
2022/07/25 10:26:01;;;;;;;4.70;2.47;;;23.60;99.90;;;;;;5073287;28;20267;-60
2022/07/25 10:28:40;;;;;;;4.00;2.73;;;23.50;99.90;;;;;;5067977;28;20219;-60
2022/07/25 10:31:21;;;;;;;4.03;2.13;;;23.50;99.90;;;;;;5066338;28;20249;-59
2022/07/25 10:33:56;;;;;;;6.40;2.40;;;23.50;99.90;;;;;;5072670;28;20194;-60
2022/07/25 10:36:29;;;;;;;4.60;2.27;;;23.60;99.90;;;;;;5074086;28;20280;-60
2022/07/25 10:38:59;;;;;;;3.87;2.20;;;23.50;99.90;;;;;;5075710;28;20231;-60
2022/07/25 10:41:28;;;;;;;5.10;2.37;;;23.50;99.90;;;;;;5074066;28;20178;-59
2022/07/25 10:44:02;;;;;;;6.10;2.13;;;23.50;99.90;;;;;;5071168;28;20641;-60
2022/07/25 10:46:34;;;;;;;3.87;2.00;;;23.30;99.90;;;;;;5073093;28;20203;-59
2022/07/25 10:49:04;;;;;;;6.30;2.07;;;23.10;99.90;;;;;;5070117;28;20201;-59
2022/07/25 10:51:36;;;;;;;2.43;2.00;;;23.10;99.90;;;;;;5069298;28;20235;-59
2022/07/25 10:54:14;;;;;;;6.73;2.17;;;23.00;99.90;;;;;;5066620;28;20200;-59
2022/07/25 10:56:53;;;;;;;3.20;2.13;;;22.80;99.90;;;;;;5071067;28;20271;-60
2022/07/25 10:59:31;;;;;;;5.17;2.07;;;22.60;99.90;;;;;;5103657;28;20269;-59
2022/07/25 11:02:00;;;;;;;4.47;2.33;;;22.50;99.90;;;;;;5065763;28;20253;-60
2022/07/25 11:04:29;;;;;;;7.27;2.57;;;22.50;99.90;;;;;;5072176;28;20220;-60
2022/07/25 11:06:57;;;;;;;8.27;2.63;;;22.60;99.90;;;;;;5068927;28;20262;-59
2022/07/25 11:09:28;;;;;;;4.70;2.50;;;22.70;99.90;;;;;;5065812;28;20272;-59
2022/07/25 11:11:58;;;;;;;5.17;2.40;;;22.80;99.90;;;;;;5067055;28;20258;-60
2022/07/25 11:14:32;;;;;;;4.20;2.57;;;22.80;99.90;;;;;;5073265;28;20275;-59
2022/07/25 11:17:14;;;;;;;5.93;2.43;;;22.90;99.90;;;;;;5069167;28;20276;-60
2022/07/25 11:19:43;;;;;;;4.00;2.40;;;23.20;99.90;;;;;;5071525;28;20197;-60
2022/07/25 11:22:12;;;;;;;5.87;2.43;;;23.50;99.90;;;;;;5079280;28;20254;-59
2022/07/25 11:24:42;;;;;;;8.23;2.47;;;23.70;99.90;;;;;;5068763;28;20201;-60
2022/07/25 11:27:12;;;;;;;4.10;2.10;;;24.00;99.90;;;;;;5073255;28;20194;-59
2022/07/25 11:29:42;;;;;;;7.37;2.30;;;24.30;99.90;;;;;;5071570;28;20810;-59
2022/07/25 11:32:12;;;;;;;4.20;2.03;;;24.50;99.90;;;;;;5070953;28;20214;-58
2022/07/25 11:34:43;;;;;;;3.53;2.27;;;24.50;99.90;;;;;;5064998;28;20247;-61
2022/07/25 11:37:13;;;;;;;5.23;2.13;;;24.30;99.90;;;;;;5064381;28;20422;-58
2022/07/25 11:39:43;;;;;;;4.87;2.23;;;24.20;99.90;;;;;;5066284;28;20194;-60
2022/07/25 11:42:15;;;;;;;5.50;2.30;;;24.00;99.90;;;;;;5068252;28;20269;-59
2022/07/25 11:44:46;;;;;;;5.20;2.40;;;23.90;99.90;;;;;;5076595;28;20200;-59
2022/07/25 11:47:25;;;;;;;4.00;2.20;;;24.00;99.90;;;;;;5066882;28;20235;-59
2022/07/25 11:49:54;;;;;;;4.40;2.30;;;24.40;99.90;;;;;;5070413;28;20284;-59
2022/07/25 11:52:25;;;;;;;4.17;2.20;;;24.80;99.90;;;;;;5065824;28;20269;-59
2022/07/25 11:54:56;;;;;;;7.73;2.33;;;24.80;99.90;;;;;;5070754;28;20226;-59
2022/07/25 11:57:25;;;;;;;6.63;2.13;;;24.60;99.90;;;;;;5066030;28;20204;-59
2022/07/25 11:59:55;;;;;;;7.47;2.57;;;24.40;99.90;;;;;;5068574;28;20257;-59
2022/07/25 12:02:26;;;;;;;5.10;1.80;;;24.80;99.90;;;;;;5070936;28;20230;-59
2022/07/25 12:04:57;;;;;;;5.33;1.87;;;24.90;99.90;;;;;;5070455;28;20554;-58
2022/07/25 12:07:50;;;;;;;4.23;2.00;;;24.80;99.90;;;;;;5068025;28;20225;-59
2022/07/25 12:10:21;;;;;;;5.73;1.77;;;24.90;99.90;;;;;;5045764;28;20293;-61
2022/07/25 12:12:51;;;;;;;3.70;1.90;;;25.10;99.90;;;;;;5097933;28;20307;-57
2022/07/25 12:15:24;;;;;;;4.70;2.20;;;25.50;99.90;;;;;;5063890;28;20210;-60
2022/07/25 12:17:54;;;;;;;7.80;2.20;;;25.50;99.90;;;;;;5069951;28;20204;-57
2022/07/25 12:20:25;;;;;;;4.30;2.10;;;25.80;99.90;;;;;;5061525;28;20212;-60
2022/07/25 12:22:55;;;;;;;3.67;1.63;;;26.00;99.90;;;;;;5081186;28;20603;-60
2022/07/25 12:25:24;;;;;;;8.27;1.77;;;26.00;99.90;;;;;;5067797;28;20184;-60
2022/07/25 12:27:58;;;;;;;5.67;1.90;;;26.00;99.90;;;;;;5061472;28;20246;-60
2022/07/25 12:30:29;;;;;;;5.33;2.27;;;25.80;99.90;;;;;;5062007;28;20277;-59
2022/07/25 12:32:59;;;;;;;3.37;1.90;;;26.00;99.90;;;;;;5079588;28;20277;-59
2022/07/25 12:35:28;;;;;;;6.20;2.17;;;25.90;99.90;;;;;;5073902;28;20558;-60
2022/07/25 12:37:56;;;;;;;3.90;1.60;;;26.00;99.90;;;;;;5075270;28;20246;-59
2022/07/25 12:40:26;;;;;;;5.93;1.97;;;25.80;99.90;;;;;;5076676;28;20542;-60
2022/07/25 12:42:56;;;;;;;4.63;2.00;;;25.70;99.90;;;;;;5073710;28;20212;-59
2022/07/25 12:45:24;;;;;;;7.37;2.57;;;25.70;99.90;;;;;;5068706;28;20683;-59
2022/07/25 12:47:54;;;;;;;9.20;2.00;;;25.80;99.90;;;;;;5058581;28;20195;-59
2022/07/25 12:50:24;;;;;;;6.23;2.03;;;25.90;99.90;;;;;;5073845;28;20714;-59
2022/07/25 12:52:53;;;;;;;3.07;2.00;;;26.00;99.90;;;;;;5079010;28;21403;-58
2022/07/25 12:55:21;;;;;;;3.63;1.77;;;25.90;99.90;;;;;;5076289;28;20308;-60
2022/07/25 12:57:50;;;;;;;10.00;1.90;;;25.80;99.90;;;;;;5073025;28;20200;-59
2022/07/25 13:00:20;;;;;;;3.97;1.83;;;25.80;99.90;;;;;;5063163;28;20282;-59
2022/07/25 13:02:51;;;;;;;3.00;1.50;;;25.80;99.90;;;;;;5063851;28;20192;-59
2022/07/25 13:05:22;;;;;;;4.53;1.60;;;25.80;99.90;;;;;;5062732;28;20196;-59
2022/07/25 13:07:51;;;;;;;3.30;1.70;;;25.40;99.90;;;;;;5056807;28;20304;-59
2022/07/25 13:10:20;;;;;;;11.70;1.93;;;25.20;99.90;;;;;;5100760;28;20203;-59